LOXZ

Details ICAO LOXZ
Name ZELTWEG
Region Austria
Timezone Europe/Vienna (UTC+1.0)
Plans Departing 19
Arriving 19
Stats Elevation 2,220 ft / 677 m (AMSL)
Location 47.203682° 14.745855°
Runways 2
Magnetic Variation 3.786° E
Sunrise 2017-12-17 06:43:43 UTC / 2017-12-17 07:43:43 Local
Sunset 2017-12-17 15:13:16 UTC / 2017-12-17 16:13:16 Local
Advertisement - Login to hide

Runways

ID Width Length Bearing (true) Bearing (mag) Surface Threshold Offset Overrun Length
08 197 ft / 60 m 8,923 ft / 2,720 m 80.51° 76.72° Asphalt 492 ft / 150 m 115 ft / 35 m
08L 131 ft / 40 m 3,600 ft / 1,097 m 80.92° 77.13° Grass 0 ft / 0 m 115 ft / 35 m
26 197 ft / 60 m 8,923 ft / 2,720 m 260.53° 256.74° Asphalt 820 ft / 250 m 115 ft / 35 m
26R 131 ft / 40 m 3,600 ft / 1,097 m 260.93° 257.14° Grass 328 ft / 100 m 115 ft / 35 m

Map

Weather


0- 5 10 15 20 25 30 35+ Temperature / ° C

Clouds and Precipitation
Forecast for 2017-12-17 12:00 UTC. Updated an hour ago

Ground ~20,000 ft ~40,000 ft Winds

METAR

LOXZ 171150Z VRB02KT 25KM FEW040SC SCT050SC M02/M04 Q1017 NOSIG

TAF

Not found

Frequencies

Tower 118.70 MHz TWR
Approach 129.47 MHz RADAR
Tower 132.65 MHz TWR
Approach 135.37 MHz RADAR
Warning: Do not use this data for real-world aviation or navigation. No guarantee of current accuracy is given.